createdAt,value
2023-02-20T00:00:50.971Z,4.00
2023-02-20T00:03:58.124Z,3.98
2023-02-20T00:07:06.651Z,4.02
2023-02-20T00:10:10.259Z,4.04
2023-02-20T00:13:15.882Z,4.06
2023-02-20T00:16:22.170Z,4.05
2023-02-20T00:19:29.566Z,4.02
2023-02-20T00:22:39.926Z,4.03
2023-02-20T00:25:45.995Z,3.94
2023-02-20T00:28:58.968Z,3.95
2023-02-20T00:32:06.680Z,3.90
2023-02-20T00:35:13.595Z,3.85
2023-02-20T00:38:19.266Z,3.72
2023-02-20T00:41:25.385Z,3.70
2023-02-20T00:44:29.628Z,3.64
2023-02-20T00:47:37.021Z,3.62
2023-02-20T00:50:41.556Z,3.50
2023-02-20T00:53:49.653Z,3.42
2023-02-20T00:56:56.223Z,3.36
2023-02-20T01:00:02.088Z,3.27
2023-02-20T01:03:07.425Z,3.22
2023-02-20T01:06:12.635Z,3.18
2023-02-20T01:09:17.402Z,3.14
2023-02-20T01:12:28.376Z,3.14
2023-02-20T01:15:31.264Z,3.12
2023-02-20T01:18:37.733Z,3.07
2023-02-20T01:21:43.898Z,3.12
2023-02-20T01:24:51.190Z,3.10
2023-02-20T01:27:54.687Z,3.01
2023-02-20T01:30:57.785Z,2.98
2023-02-20T01:34:01.927Z,2.97
2023-02-20T01:37:24.170Z,2.92
2023-02-20T01:40:30.425Z,2.96
2023-02-20T01:43:37.367Z,2.89
2023-02-20T01:46:52.652Z,2.85
2023-02-20T01:50:46.932Z,2.79
2023-02-20T01:57:53.143Z,2.86
2023-02-20T02:01:02.965Z,2.90
2023-02-20T02:04:18.515Z,2.84
2023-02-20T02:07:57.137Z,2.82
2023-02-20T02:11:22.768Z,2.77
2023-02-20T02:14:33.868Z,2.69
2023-02-20T02:18:14.688Z,2.63
2023-02-20T02:22:08.444Z,2.65
2023-02-20T02:25:44.582Z,2.54
2023-02-20T02:29:42.437Z,2.36
2023-02-20T02:33:35.467Z,2.29
2023-02-20T02:36:55.699Z,2.30
2023-02-20T02:55:31.886Z,2.10
2023-02-20T02:59:20.252Z,2.08
2023-02-20T03:07:08.027Z,1.96
2023-02-20T03:10:29.527Z,1.92
2023-02-20T03:14:11.142Z,1.95
2023-02-20T03:17:52.835Z,1.93
2023-02-20T03:21:27.770Z,1.95
2023-02-20T03:25:12.972Z,2.00
2023-02-20T03:28:57.361Z,2.02
2023-02-20T03:32:40.764Z,2.07
2023-02-20T03:36:22.361Z,2.07
2023-02-20T03:43:31.864Z,2.10
2023-02-20T03:46:47.792Z,2.09
2023-02-20T03:53:30.414Z,2.18
2023-02-20T04:00:06.263Z,2.23
2023-02-20T04:03:56.444Z,2.27
2023-02-20T04:07:10.181Z,2.22
2023-02-20T04:10:32.849Z,2.22
2023-02-20T04:13:50.227Z,2.27
2023-02-20T04:20:23.796Z,2.25
2023-02-20T04:23:37.596Z,2.20
2023-02-20T04:26:44.510Z,2.09
2023-02-20T04:30:21.365Z,2.05
2023-02-20T04:34:07.464Z,2.04
2023-02-20T04:37:18.583Z,2.09
2023-02-20T04:40:23.441Z,2.25
2023-02-20T04:50:41.574Z,2.29
2023-02-20T04:54:39.598Z,2.33
2023-02-20T04:58:09.939Z,2.32
2023-02-20T05:02:10.355Z,2.36
2023-02-20T05:05:26.022Z,2.24
2023-02-20T05:15:43.738Z,2.52
2023-02-20T05:18:50.958Z,2.58
2023-02-20T05:22:37.569Z,2.77
2023-02-20T05:25:56.170Z,2.83
2023-02-20T05:33:37.562Z,2.83
2023-02-20T05:36:46.906Z,2.82
2023-02-20T05:40:00.923Z,2.85
2023-02-20T05:43:22.367Z,2.80
2023-02-20T05:46:43.368Z,2.83
2023-02-20T05:54:19.293Z,2.78
2023-02-20T06:01:08.366Z,2.85
2023-02-20T06:08:20.116Z,2.95
2023-02-20T06:11:58.306Z,3.09
2023-02-20T06:15:05.521Z,3.20
2023-02-20T06:37:54.379Z,3.61
2023-02-20T06:41:09.726Z,3.70
2023-02-20T06:44:14.348Z,3.62
2023-02-20T06:47:32.515Z,3.73
2023-02-20T06:50:52.141Z,3.84
2023-02-20T06:54:07.823Z,3.92
2023-02-20T06:57:23.656Z,3.95
2023-02-20T07:00:32.872Z,3.92
2023-02-20T07:03:53.561Z,3.88
2023-02-20T07:07:24.385Z,3.89
2023-02-20T07:10:28.720Z,3.83
2023-02-20T07:13:41.739Z,3.83
2023-02-20T07:16:52.486Z,3.62
2023-02-20T07:19:55.065Z,3.65
2023-02-20T07:22:57.995Z,3.84
2023-02-20T07:26:21.984Z,3.74
2023-02-20T07:29:27.850Z,3.78
2023-02-20T07:32:32.946Z,3.92
2023-02-20T07:35:38.140Z,4.01
2023-02-20T07:42:11.454Z,4.44
2023-02-20T07:45:19.956Z,4.74
2023-02-20T07:48:25.414Z,5.08
2023-02-20T07:51:37.075Z,4.98
2023-02-20T07:54:39.906Z,5.06
2023-02-20T07:58:12.088Z,5.07
2023-02-20T08:04:55.353Z,5.66
2023-02-20T08:11:23.065Z,5.88
2023-02-20T08:14:25.856Z,6.01
2023-02-20T08:17:46.806Z,6.00
2023-02-20T08:20:49.753Z,5.87
2023-02-20T08:23:53.050Z,6.07
2023-02-20T08:26:58.445Z,6.05
2023-02-20T08:30:01.225Z,6.03
2023-02-20T08:33:13.436Z,6.06
2023-02-20T08:36:19.185Z,5.93
2023-02-20T08:39:21.488Z,5.98
2023-02-20T08:42:26.146Z,5.94
2023-02-20T08:45:28.684Z,6.03
2023-02-20T08:48:31.871Z,6.22
2023-02-20T08:51:33.951Z,6.39
2023-02-20T08:54:41.338Z,6.33
2023-02-20T08:57:45.802Z,6.50
2023-02-20T09:04:25.236Z,6.78
2023-02-20T09:07:28.858Z,6.93
2023-02-20T09:14:22.662Z,7.27
2023-02-20T09:17:25.293Z,7.49
2023-02-20T09:20:29.447Z,7.80
2023-02-20T09:23:33.636Z,7.91
2023-02-20T09:26:40.141Z,8.06
2023-02-20T09:29:53.408Z,8.26
2023-02-20T09:32:57.055Z,8.16
2023-02-20T09:36:04.927Z,7.86
2023-02-20T09:39:07.961Z,7.53
2023-02-20T09:42:43.355Z,7.59
2023-02-20T09:46:12.276Z,7.65
2023-02-20T09:49:40.281Z,7.49
2023-02-20T09:52:45.535Z,7.47
2023-02-20T09:55:49.862Z,7.38
2023-02-20T09:59:06.540Z,7.08
2023-02-20T10:02:14.653Z,7.26
2023-02-20T10:05:39.370Z,7.49
2023-02-20T10:08:46.613Z,7.71
2023-02-20T10:11:52.991Z,7.85
2023-02-20T10:15:05.937Z,8.05
2023-02-20T10:18:34.268Z,8.41
2023-02-20T10:32:38.545Z,8.91
2023-02-20T10:36:14.684Z,8.79
2023-02-20T10:39:49.145Z,8.89
2023-02-20T10:43:29.634Z,8.86
2023-02-20T10:46:56.569Z,8.92
2023-02-20T10:50:14.760Z,9.06
2023-02-20T10:53:39.465Z,9.29
2023-02-20T10:57:05.423Z,9.56
2023-02-20T11:00:19.793Z,9.85
2023-02-20T11:07:45.820Z,9.80
2023-02-20T11:15:00.263Z,9.74
2023-02-20T11:25:19.751Z,10.60
2023-02-20T11:28:36.021Z,10.88
2023-02-20T11:39:20.149Z,11.43
2023-02-20T11:43:19.314Z,11.44
2023-02-20T11:51:11.689Z,11.32
2023-02-20T11:54:26.562Z,11.37
2023-02-20T12:02:09.045Z,10.98
2023-02-20T12:13:31.955Z,11.41
2023-02-20T12:16:56.168Z,11.63
2023-02-20T12:24:27.611Z,11.80
2023-02-20T12:58:35.665Z,12.08
2023-02-20T13:09:11.898Z,12.42
2023-02-20T13:12:30.721Z,12.55
2023-02-20T13:16:08.567Z,12.39
2023-02-20T13:19:52.776Z,12.79
2023-02-20T13:26:48.289Z,12.65
2023-02-20T13:30:55.819Z,12.38
2023-02-20T13:41:22.550Z,12.69
2023-02-20T13:51:45.135Z,12.40
2023-02-20T13:58:37.873Z,12.54
2023-02-20T14:02:12.833Z,12.49
2023-02-20T14:05:33.638Z,12.46
2023-02-20T14:08:43.924Z,12.40
2023-02-20T14:11:53.901Z,12.38
2023-02-20T14:18:44.643Z,12.20
2023-02-20T14:21:56.054Z,12.27
2023-02-20T14:25:40.003Z,12.25
2023-02-20T14:32:31.346Z,12.40
2023-02-20T14:36:02.220Z,12.33
2023-02-20T14:39:53.133Z,12.36
2023-02-20T14:59:01.569Z,12.38
2023-02-20T15:06:29.814Z,12.06
2023-02-20T15:09:48.498Z,11.91
2023-02-20T15:13:08.152Z,11.79
2023-02-20T15:16:50.689Z,11.60
2023-02-20T15:24:46.386Z,11.20
2023-02-20T15:39:22.598Z,10.71
2023-02-20T15:42:54.802Z,10.58
2023-02-20T15:46:15.504Z,10.43
2023-02-20T15:49:36.430Z,10.22
2023-02-20T15:52:38.964Z,10.07
2023-02-20T15:55:44.053Z,9.97
2023-02-20T16:09:06.445Z,9.79
2023-02-20T16:12:16.577Z,9.64
2023-02-20T16:15:22.835Z,9.50
2023-02-20T16:18:40.335Z,9.43
2023-02-20T16:21:56.942Z,9.44
2023-02-20T16:25:04.182Z,9.36
2023-02-20T16:31:54.241Z,9.27
2023-02-20T16:35:34.435Z,9.18
2023-02-20T16:38:46.085Z,9.12
2023-02-20T16:41:54.251Z,9.08
2023-02-20T16:45:07.615Z,8.99
2023-02-20T16:48:16.496Z,8.94
2023-02-20T16:51:39.885Z,8.80
2023-02-20T16:54:57.979Z,8.70
2023-02-20T16:58:09.372Z,8.59
2023-02-20T17:01:26.040Z,8.59
2023-02-20T17:04:31.574Z,8.49
2023-02-20T17:07:39.178Z,8.40
2023-02-20T17:11:10.299Z,8.23
2023-02-20T17:14:56.589Z,8.07
2023-02-20T17:21:48.207Z,7.84
2023-02-20T17:28:21.189Z,7.76
2023-02-20T17:31:26.030Z,7.80
2023-02-20T17:34:54.117Z,7.79
2023-02-20T17:38:03.144Z,7.78
2023-02-20T17:41:07.332Z,7.70
2023-02-20T17:44:13.049Z,7.58
2023-02-20T17:47:26.726Z,7.48
2023-02-20T17:50:33.470Z,7.39
2023-02-20T17:53:51.846Z,7.37
2023-02-20T18:08:22.805Z,7.04
2023-02-20T18:11:37.247Z,6.92
2023-02-20T18:18:45.830Z,6.80
2023-02-20T18:22:06.189Z,6.74
2023-02-20T18:25:40.881Z,6.68
2023-02-20T18:28:48.804Z,6.67
2023-02-20T18:32:26.477Z,6.64
2023-02-20T18:35:33.382Z,6.60
2023-02-20T18:38:45.224Z,6.55
2023-02-20T18:42:02.481Z,6.55
2023-02-20T18:45:07.604Z,6.53
2023-02-20T18:48:22.267Z,6.53
2023-02-20T18:51:56.630Z,6.52
2023-02-20T18:55:02.908Z,6.54
2023-02-20T18:58:23.008Z,6.60
2023-02-20T19:01:27.971Z,6.74
2023-02-20T19:04:56.441Z,7.09
2023-02-20T19:08:13.986Z,7.55
2023-02-20T19:11:30.713Z,8.01
2023-02-20T19:14:42.556Z,8.36
2023-02-20T19:18:14.868Z,8.57
2023-02-20T19:21:40.786Z,8.63
2023-02-20T19:32:05.151Z,8.79
2023-02-20T19:35:09.213Z,8.90
2023-02-20T19:38:57.044Z,8.95
2023-02-20T19:42:11.317Z,8.96
2023-02-20T19:45:13.976Z,9.04
2023-02-20T19:48:19.872Z,9.09
2023-02-20T19:51:23.615Z,9.08
2023-02-20T19:54:50.270Z,9.06
2023-02-20T19:58:09.173Z,9.07
2023-02-20T20:01:25.319Z,9.08
2023-02-20T20:08:21.862Z,8.90
2023-02-20T20:12:09.525Z,8.87
2023-02-20T20:15:12.268Z,8.82
2023-02-20T20:18:18.999Z,8.74
2023-02-20T20:21:22.339Z,8.76
2023-02-20T20:24:27.476Z,8.81
2023-02-20T20:27:30.547Z,8.75
2023-02-20T20:30:47.669Z,8.75
2023-02-20T20:33:50.453Z,8.66
2023-02-20T20:36:55.876Z,8.67
2023-02-20T20:40:10.118Z,8.64
2023-02-20T20:43:19.213Z,8.53
2023-02-20T20:46:35.168Z,8.46
2023-02-20T20:49:48.074Z,8.43
2023-02-20T20:53:03.470Z,8.37
2023-02-20T20:56:06.536Z,8.30
2023-02-20T20:59:11.908Z,8.25
2023-02-20T21:02:15.510Z,8.14
2023-02-20T21:08:37.326Z,8.07
2023-02-20T21:11:41.911Z,8.04
2023-02-20T21:14:46.903Z,7.91
2023-02-20T21:18:02.179Z,7.94
2023-02-20T21:21:10.884Z,8.02
2023-02-20T21:24:17.099Z,8.07
2023-02-20T21:27:21.335Z,8.12
2023-02-20T21:30:28.407Z,8.11
2023-02-20T21:33:31.927Z,8.14
2023-02-20T21:36:34.151Z,8.23
2023-02-20T21:39:38.939Z,8.32
2023-02-20T21:43:00.009Z,8.37
2023-02-20T21:46:06.760Z,8.42
2023-02-20T21:49:09.766Z,8.50
2023-02-20T21:52:12.739Z,8.41
2023-02-20T21:55:16.845Z,8.49
2023-02-20T21:58:52.827Z,8.42
2023-02-20T22:02:06.682Z,8.32
2023-02-20T22:05:13.249Z,8.25
2023-02-20T22:08:36.725Z,8.22
2023-02-20T22:12:04.909Z,8.18
2023-02-20T22:15:27.632Z,8.17
2023-02-20T22:18:48.459Z,8.17
2023-02-20T22:22:09.962Z,8.14
2023-02-20T22:25:31.733Z,8.25
2023-02-20T22:28:54.851Z,8.39
2023-02-20T22:32:16.253Z,8.53
2023-02-20T22:35:42.935Z,8.68
2023-02-20T22:39:07.220Z,8.83
2023-02-20T22:42:34.516Z,8.93
2023-02-20T22:45:55.853Z,9.02
2023-02-20T22:49:18.751Z,9.05
2023-02-20T22:52:41.136Z,9.04
2023-02-20T22:56:02.702Z,8.95
2023-02-20T22:59:36.467Z,8.78
2023-02-20T23:02:59.438Z,8.62
2023-02-20T23:06:21.928Z,8.41
2023-02-20T23:09:45.552Z,8.15
2023-02-20T23:13:09.182Z,7.93
2023-02-20T23:16:34.901Z,7.64
2023-02-20T23:20:12.980Z,7.41
2023-02-20T23:23:37.094Z,7.23
2023-02-20T23:27:16.844Z,7.05
2023-02-20T23:30:44.641Z,7.00
2023-02-20T23:34:12.886Z,6.93
2023-02-20T23:37:42.392Z,6.83
2023-02-20T23:41:28.348Z,6.83
2023-02-20T23:44:51.099Z,6.83
2023-02-20T23:52:16.354Z,6.82
2023-02-20T23:55:40.989Z,6.86
2023-02-20T23:59:13.835Z,6.89
